createdAt,value
2018-07-24T00:00:51.756Z,18.82
2018-07-24T00:01:51.733Z,18.76
2018-07-24T00:02:51.673Z,18.73
2018-07-24T00:03:51.637Z,18.76
2018-07-24T00:04:51.602Z,18.76
2018-07-24T00:05:51.570Z,18.76
2018-07-24T00:06:51.569Z,18.70
2018-07-24T00:07:51.491Z,18.67
2018-07-24T00:08:51.452Z,18.67
2018-07-24T00:09:51.429Z,18.69
2018-07-24T00:10:51.416Z,18.67
2018-07-24T00:11:51.373Z,18.65
2018-07-24T00:12:51.310Z,18.76
2018-07-24T00:13:51.266Z,18.72
2018-07-24T00:14:51.231Z,18.65
2018-07-24T00:15:51.195Z,18.70
2018-07-24T00:16:51.159Z,18.67
2018-07-24T00:17:51.151Z,18.67
2018-07-24T00:18:51.088Z,18.57
2018-07-24T00:19:51.053Z,18.50
2018-07-24T00:20:51.014Z,18.55
2018-07-24T00:21:50.969Z,18.54
2018-07-24T00:22:50.954Z,18.51
2018-07-24T00:23:50.903Z,18.47
2018-07-24T00:24:50.865Z,18.54
2018-07-24T00:25:50.823Z,18.54
2018-07-24T00:26:50.789Z,18.51
2018-07-24T00:27:50.773Z,18.57
2018-07-24T00:28:50.713Z,18.51
2018-07-24T00:29:50.680Z,18.60
2018-07-24T00:30:50.646Z,18.42
2018-07-24T00:31:50.607Z,18.51
2018-07-24T00:32:50.598Z,18.55
2018-07-24T00:33:50.524Z,18.50
2018-07-24T00:34:50.488Z,18.52
2018-07-24T00:35:50.453Z,18.52
2018-07-24T00:36:50.414Z,18.47
2018-07-24T00:37:50.383Z,18.47
2018-07-24T00:38:50.374Z,18.47
2018-07-24T00:39:50.304Z,18.47
2018-07-24T00:40:50.262Z,18.39
2018-07-24T00:41:50.233Z,18.37
2018-07-24T00:42:50.196Z,18.37
2018-07-24T00:43:50.186Z,18.37
2018-07-24T00:44:50.123Z,18.37
2018-07-24T00:45:50.084Z,18.41
2018-07-24T00:46:50.044Z,18.37
2018-07-24T00:47:50.004Z,18.26
2018-07-24T00:48:49.995Z,18.35
2018-07-24T00:49:49.939Z,18.33
2018-07-24T00:50:49.902Z,18.42
2018-07-24T00:51:49.863Z,18.44
2018-07-24T00:52:49.830Z,18.35
2018-07-24T00:53:49.788Z,18.37
2018-07-24T00:54:49.767Z,18.37
2018-07-24T00:55:49.713Z,18.37
2018-07-24T00:56:49.679Z,18.42
2018-07-24T00:57:49.633Z,18.32
2018-07-24T00:58:49.594Z,18.35
2018-07-24T00:59:49.583Z,18.41
2018-07-24T01:00:49.522Z,18.33
2018-07-24T01:01:49.493Z,18.32
2018-07-24T01:02:49.453Z,18.37
2018-07-24T01:03:49.419Z,18.39
2018-07-24T01:04:49.403Z,18.33
2018-07-24T01:05:49.334Z,18.37
2018-07-24T01:06:49.301Z,18.30
2018-07-24T01:07:49.267Z,18.36
2018-07-24T01:08:49.225Z,18.41
2018-07-24T01:09:49.220Z,18.36
2018-07-24T01:10:49.157Z,18.37
2018-07-24T01:11:49.114Z,18.36
2018-07-24T01:12:49.073Z,18.37
2018-07-24T01:13:49.046Z,18.37
2018-07-24T01:14:49.010Z,18.36
2018-07-24T01:15:48.995Z,18.27
2018-07-24T01:16:48.933Z,18.32
2018-07-24T01:17:48.893Z,18.36
2018-07-24T01:18:48.857Z,18.35
2018-07-24T01:19:48.821Z,18.26
2018-07-24T01:20:48.802Z,18.21
2018-07-24T01:21:48.746Z,18.25
2018-07-24T01:22:48.707Z,18.21
2018-07-24T01:23:48.676Z,18.23
2018-07-24T01:24:48.632Z,18.23
2018-07-24T01:25:48.617Z,18.20
2018-07-24T01:26:48.553Z,18.21
2018-07-24T01:27:48.526Z,18.20
2018-07-24T01:28:48.484Z,18.20
2018-07-24T01:29:48.444Z,18.25
2018-07-24T01:30:48.409Z,18.20
2018-07-24T01:31:48.392Z,18.20
2018-07-24T01:32:48.329Z,18.23
2018-07-24T01:33:48.302Z,18.14
2018-07-24T01:34:48.264Z,18.12
2018-07-24T01:35:48.226Z,18.15
2018-07-24T01:36:48.210Z,18.17
2018-07-24T01:37:48.151Z,18.10
2018-07-24T01:38:48.106Z,18.11
2018-07-24T01:39:48.069Z,18.05
2018-07-24T01:40:48.036Z,18.07
2018-07-24T01:41:48.018Z,18.08
2018-07-24T01:42:47.965Z,18.02
2018-07-24T01:43:47.920Z,17.99
2018-07-24T01:44:47.880Z,17.97
2018-07-24T01:45:47.854Z,18.03
2018-07-24T01:46:47.844Z,18.02
2018-07-24T01:47:47.777Z,18.00
2018-07-24T01:48:47.762Z,17.96
2018-07-24T01:49:47.694Z,18.03
2018-07-24T01:50:47.656Z,18.12
2018-07-24T01:51:47.624Z,18.02
2018-07-24T01:52:47.603Z,18.07
2018-07-24T01:53:47.551Z,18.00
2018-07-24T01:54:47.519Z,18.03
2018-07-24T01:55:47.480Z,18.00
2018-07-24T01:56:47.441Z,18.12
2018-07-24T01:57:47.422Z,18.12
2018-07-24T01:58:47.359Z,18.12
2018-07-24T01:59:47.332Z,18.03
2018-07-24T02:00:47.292Z,18.08
2018-07-24T02:01:47.248Z,18.08
2018-07-24T02:02:47.240Z,18.03
2018-07-24T02:03:57.376Z,18.07
2018-07-24T02:04:47.142Z,17.96
2018-07-24T02:05:47.104Z,17.99
2018-07-24T02:06:47.067Z,17.95
2018-07-24T02:07:47.023Z,17.99
2018-07-24T02:08:47.006Z,18.02
2018-07-24T02:09:46.950Z,18.03
2018-07-24T02:10:46.911Z,18.00
2018-07-24T02:11:46.881Z,17.93
2018-07-24T02:12:46.848Z,17.90
2018-07-24T02:13:46.832Z,17.89
2018-07-24T02:14:46.759Z,17.82
2018-07-24T02:15:46.734Z,17.97
2018-07-24T02:16:46.693Z,17.95
2018-07-24T02:17:46.652Z,17.97
2018-07-24T02:18:46.643Z,17.96
2018-07-24T02:19:46.576Z,17.89
2018-07-24T02:20:56.905Z,17.87
2018-07-24T02:21:46.504Z,17.92
2018-07-24T02:22:46.472Z,17.90
2018-07-24T02:23:46.430Z,17.81
2018-07-24T02:24:46.413Z,17.86
2018-07-24T02:25:46.348Z,17.86
2018-07-24T02:26:46.310Z,17.90
2018-07-24T02:27:46.280Z,17.82
2018-07-24T02:28:46.249Z,17.84
2018-07-24T02:29:46.221Z,17.86
2018-07-24T02:30:46.164Z,17.81
2018-07-24T02:31:46.166Z,17.90
2018-07-24T02:32:46.088Z,17.77
2018-07-24T02:33:46.054Z,17.89
2018-07-24T02:34:46.039Z,17.84
2018-07-24T02:35:45.985Z,17.86
2018-07-24T02:36:45.940Z,17.95
2018-07-24T02:37:45.897Z,17.92
2018-07-24T02:38:55.937Z,17.89
2018-07-24T02:39:45.851Z,17.87
2018-07-24T02:40:45.792Z,17.96
2018-07-24T02:41:45.749Z,17.90
2018-07-24T02:42:45.711Z,17.93
2018-07-24T02:43:45.679Z,17.92
2018-07-24T02:44:45.646Z,17.87
2018-07-24T02:45:45.626Z,17.96
2018-07-24T02:46:45.568Z,17.92
2018-07-24T02:47:45.520Z,17.82
2018-07-24T02:48:45.481Z,17.87
2018-07-24T02:49:45.447Z,17.84
2018-07-24T02:50:45.444Z,17.84
2018-07-24T02:51:45.381Z,17.81
2018-07-24T02:52:45.343Z,17.74
2018-07-24T02:53:45.311Z,17.75
2018-07-24T02:54:45.263Z,17.86
2018-07-24T02:55:45.250Z,17.72
2018-07-24T02:56:45.184Z,17.78
2018-07-24T02:57:45.160Z,17.78
2018-07-24T02:58:45.116Z,17.72
2018-07-24T02:59:45.072Z,17.72
2018-07-24T03:00:45.036Z,17.78
2018-07-24T03:01:45.019Z,17.78
2018-07-24T03:02:44.961Z,17.75
2018-07-24T03:03:44.932Z,17.74
2018-07-24T03:04:44.892Z,17.74
2018-07-24T03:05:44.852Z,17.77
2018-07-24T03:06:44.834Z,17.79
2018-07-24T03:07:44.771Z,17.70
2018-07-24T03:08:44.734Z,17.78
2018-07-24T03:09:44.706Z,17.77
2018-07-24T03:10:44.660Z,17.68
2018-07-24T03:11:44.650Z,17.70
2018-07-24T03:12:44.588Z,17.64
2018-07-24T03:13:44.551Z,17.68
2018-07-24T03:14:44.510Z,17.62
2018-07-24T03:15:44.484Z,17.62
2018-07-24T03:16:44.473Z,17.72
2018-07-24T03:17:44.403Z,17.66
2018-07-24T03:18:44.376Z,17.62
2018-07-24T03:19:44.320Z,17.59
2018-07-24T03:20:44.285Z,17.66
2018-07-24T03:21:44.245Z,17.66
2018-07-24T03:22:44.230Z,17.64
2018-07-24T03:23:44.202Z,17.58
2018-07-24T03:24:44.136Z,17.58
2018-07-24T03:25:44.105Z,17.62
2018-07-24T03:26:44.070Z,17.59
2018-07-24T03:27:54.011Z,17.64
2018-07-24T03:28:43.990Z,17.68
2018-07-24T03:29:43.947Z,17.68
2018-07-24T03:30:43.907Z,17.68
2018-07-24T03:31:43.869Z,17.64
2018-07-24T03:32:43.861Z,17.51
2018-07-24T03:33:43.802Z,17.68
2018-07-24T03:34:43.761Z,17.71
2018-07-24T03:35:43.726Z,17.68
2018-07-24T03:36:43.685Z,17.54
2018-07-24T03:37:43.642Z,17.58
2018-07-24T03:38:43.627Z,17.59
2018-07-24T03:39:43.684Z,17.62
2018-07-24T03:40:43.529Z,17.70
2018-07-24T03:41:43.500Z,17.62
2018-07-24T03:42:43.464Z,17.66
2018-07-24T03:43:43.441Z,17.64
2018-07-24T03:44:53.532Z,17.59
2018-07-24T03:45:43.354Z,17.66
2018-07-24T03:46:43.313Z,17.59
2018-07-24T03:47:43.272Z,17.66
2018-07-24T03:48:43.249Z,17.62
2018-07-24T03:49:43.190Z,17.52
2018-07-24T03:50:43.156Z,17.54
2018-07-24T03:51:43.123Z,17.66
2018-07-24T03:52:43.092Z,17.62
2018-07-24T03:53:43.075Z,17.55
2018-07-24T03:54:43.005Z,17.59
2018-07-24T03:55:42.966Z,17.63
2018-07-24T03:56:42.924Z,17.63
2018-07-24T03:57:42.896Z,17.66
2018-07-24T03:58:42.861Z,17.66
2018-07-24T03:59:42.833Z,17.62
2018-07-24T04:00:42.776Z,17.63
2018-07-24T04:01:42.750Z,17.70
2018-07-24T04:02:42.702Z,17.78
2018-07-24T04:03:42.667Z,17.66
2018-07-24T04:04:42.656Z,17.77
2018-07-24T04:05:42.600Z,17.74
2018-07-24T04:06:42.558Z,17.72
2018-07-24T04:07:42.521Z,17.78
2018-07-24T04:08:42.481Z,17.79
2018-07-24T04:09:42.466Z,17.82
2018-07-24T04:10:42.396Z,17.82
2018-07-24T04:11:42.370Z,17.90
2018-07-24T04:12:42.335Z,17.90
2018-07-24T04:13:42.287Z,17.92
2018-07-24T04:14:42.252Z,17.93
2018-07-24T04:15:42.247Z,17.90
2018-07-24T04:16:42.182Z,17.86
2018-07-24T04:17:42.146Z,17.84
2018-07-24T04:18:42.109Z,17.97
2018-07-24T04:19:42.063Z,17.96
2018-07-24T04:20:42.060Z,17.93
2018-07-24T04:21:41.989Z,18.02
2018-07-24T04:22:41.951Z,18.03
2018-07-24T04:23:41.921Z,18.08
2018-07-24T04:24:41.879Z,18.11
2018-07-24T04:25:41.874Z,18.14
2018-07-24T04:26:41.814Z,18.14
2018-07-24T04:27:41.763Z,18.14
2018-07-24T04:28:41.729Z,18.29
2018-07-24T04:29:41.702Z,18.18
2018-07-24T04:30:41.671Z,18.21
2018-07-24T04:31:41.640Z,18.23
2018-07-24T04:32:41.580Z,18.36
2018-07-24T04:33:41.539Z,18.33
2018-07-24T04:34:41.503Z,18.39
2018-07-24T04:35:41.476Z,18.39
2018-07-24T04:36:41.459Z,18.47
2018-07-24T04:37:41.400Z,18.44
2018-07-24T04:38:41.365Z,18.55
2018-07-24T04:39:41.323Z,18.55
2018-07-24T04:40:41.279Z,18.51
2018-07-24T04:41:41.270Z,18.58
2018-07-24T04:42:41.202Z,18.55
2018-07-24T04:43:41.171Z,18.67
2018-07-24T04:44:41.137Z,18.69
2018-07-24T04:45:41.090Z,18.73
2018-07-24T04:46:41.081Z,18.73
2018-07-24T04:47:41.029Z,18.81
2018-07-24T04:48:40.996Z,18.84
2018-07-24T04:49:40.952Z,18.92
2018-07-24T04:50:40.915Z,18.87
2018-07-24T04:51:40.878Z,19.00
2018-07-24T04:52:40.855Z,19.19
2018-07-24T04:53:40.793Z,19.80
2018-07-24T04:54:40.761Z,20.39
2018-07-24T04:55:40.732Z,21.10
2018-07-24T04:56:40.692Z,21.72
2018-07-24T04:57:40.688Z,22.39
2018-07-24T04:58:40.621Z,22.88
2018-07-24T04:59:40.575Z,23.33
2018-07-24T05:00:40.539Z,23.68
2018-07-24T05:01:40.514Z,23.93
2018-07-24T05:02:40.521Z,24.13
2018-07-24T05:03:40.430Z,24.35
2018-07-24T05:04:40.393Z,24.53
2018-07-24T05:05:40.362Z,24.90
2018-07-24T05:06:40.323Z,25.05
2018-07-24T05:07:40.294Z,25.40
2018-07-24T05:08:40.281Z,25.60
2018-07-24T05:09:40.282Z,25.80
2018-07-24T05:10:40.191Z,25.80
2018-07-24T05:11:50.590Z,25.97
2018-07-24T05:12:40.109Z,26.18
2018-07-24T05:13:40.114Z,26.21
2018-07-24T05:14:40.045Z,26.43
2018-07-24T05:15:40.007Z,26.44
2018-07-24T05:16:40.021Z,26.26
2018-07-24T05:17:39.948Z,26.30
2018-07-24T05:18:39.941Z,26.47
2018-07-24T05:19:39.874Z,26.65
2018-07-24T05:20:39.841Z,26.67
2018-07-24T05:21:39.797Z,26.77
2018-07-24T05:22:39.761Z,27.00
2018-07-24T05:23:39.745Z,27.03
2018-07-24T05:24:39.736Z,27.06
2018-07-24T05:25:39.666Z,27.22
2018-07-24T05:26:39.636Z,27.39
2018-07-24T05:27:39.603Z,27.51
2018-07-24T05:28:49.637Z,27.46
2018-07-24T05:29:39.563Z,27.65
2018-07-24T05:30:39.507Z,27.72
2018-07-24T05:31:39.465Z,27.94
2018-07-24T05:32:39.427Z,28.27
2018-07-24T05:33:39.398Z,28.36
2018-07-24T05:34:39.380Z,28.41
2018-07-24T05:35:39.338Z,28.41
2018-07-24T05:36:39.302Z,28.58
2018-07-24T05:37:39.268Z,28.64
2018-07-24T05:38:39.291Z,28.68
2018-07-24T05:39:39.229Z,28.90
2018-07-24T05:40:39.160Z,28.90
2018-07-24T05:41:39.132Z,28.89
2018-07-24T05:42:39.100Z,29.06
2018-07-24T05:43:39.087Z,29.19
2018-07-24T05:44:39.050Z,29.27
2018-07-24T05:45:39.027Z,29.45
2018-07-24T05:46:38.973Z,29.55
2018-07-24T05:47:49.173Z,29.73
2018-07-24T05:48:38.948Z,29.85
2018-07-24T05:49:38.867Z,29.64
2018-07-24T05:50:38.858Z,29.89
2018-07-24T05:51:38.808Z,29.86
2018-07-24T05:52:38.771Z,29.95
2018-07-24T05:53:38.745Z,30.08
2018-07-24T05:54:38.712Z,29.97
2018-07-24T05:55:38.707Z,30.04
2018-07-24T05:56:38.647Z,30.23
2018-07-24T05:57:38.612Z,30.51
2018-07-24T05:58:38.579Z,30.64
2018-07-24T05:59:38.553Z,30.77
2018-07-24T06:00:38.522Z,30.89
2018-07-24T06:01:38.509Z,30.77
2018-07-24T06:02:38.457Z,30.89
2018-07-24T06:03:38.421Z,30.73
2018-07-24T06:04:38.384Z,30.97
2018-07-24T06:05:38.362Z,31.04
2018-07-24T06:06:38.353Z,30.94
2018-07-24T06:07:38.301Z,31.04
2018-07-24T06:08:38.265Z,31.26
2018-07-24T06:09:38.233Z,31.14
2018-07-24T06:10:38.202Z,31.29
2018-07-24T06:11:38.188Z,31.41
2018-07-24T06:12:38.136Z,31.86
2018-07-24T06:13:38.112Z,32.07
2018-07-24T06:14:38.081Z,32.10
2018-07-24T06:15:38.048Z,32.25
2018-07-24T06:16:38.091Z,32.21
2018-07-24T06:17:37.993Z,32.04
2018-07-24T06:18:37.960Z,32.22
2018-07-24T06:19:37.926Z,32.35
2018-07-24T06:20:37.943Z,32.30
2018-07-24T06:21:37.856Z,32.21
2018-07-24T06:22:37.853Z,32.21
2018-07-24T06:23:37.847Z,32.43
2018-07-24T06:24:37.765Z,32.22
2018-07-24T06:25:37.743Z,32.21
2018-07-24T06:26:37.728Z,32.33
2018-07-24T06:27:37.703Z,32.88
2018-07-24T06:28:37.649Z,33.01
2018-07-24T06:29:37.614Z,33.31
2018-07-24T06:30:37.582Z,32.88
2018-07-24T06:31:37.562Z,33.04
2018-07-24T06:32:37.550Z,32.82
2018-07-24T06:33:37.493Z,33.00
2018-07-24T06:34:37.458Z,33.16
2018-07-24T06:35:37.429Z,32.56
2018-07-24T06:36:37.398Z,32.77
2018-07-24T06:37:37.384Z,33.29
2018-07-24T06:38:37.362Z,34.08
2018-07-24T06:39:37.325Z,34.77
2018-07-24T06:40:37.286Z,34.59
2018-07-24T06:41:37.248Z,35.21
2018-07-24T06:42:37.218Z,34.85
2018-07-24T06:43:37.206Z,35.34
2018-07-24T06:44:37.194Z,35.02
2018-07-24T06:45:46.242Z,34.88
2018-07-24T06:46:37.107Z,34.49
2018-07-24T06:47:37.075Z,34.25
2018-07-24T06:48:37.070Z,34.00
2018-07-24T06:49:37.021Z,33.72
2018-07-24T06:50:36.985Z,33.59
2018-07-24T06:51:37.028Z,34.53
2018-07-24T06:52:36.924Z,35.06
2018-07-24T06:53:36.894Z,34.94
2018-07-24T06:54:36.884Z,35.23
2018-07-24T06:55:36.840Z,35.10
2018-07-24T06:56:36.833Z,34.34
2018-07-24T06:57:36.779Z,33.76
2018-07-24T06:58:36.755Z,33.69
2018-07-24T06:59:36.740Z,33.79
2018-07-24T07:00:36.687Z,34.19
2018-07-24T07:01:36.661Z,34.54
2018-07-24T07:02:36.633Z,33.15
2018-07-24T07:03:36.598Z,33.26
2018-07-24T07:04:36.591Z,33.79
2018-07-24T07:05:46.781Z,33.91
2018-07-24T07:06:36.521Z,33.71
2018-07-24T07:07:36.531Z,33.19
2018-07-24T07:08:36.456Z,32.78
2018-07-24T07:09:36.419Z,32.87
2018-07-24T07:10:36.419Z,32.96
2018-07-24T07:11:36.364Z,33.65
2018-07-24T07:12:36.336Z,33.94
2018-07-24T07:13:36.351Z,34.50
2018-07-24T07:14:36.285Z,35.44
2018-07-24T07:15:36.265Z,36.17
2018-07-24T07:16:36.214Z,36.84
2018-07-24T07:17:36.198Z,37.28
2018-07-24T07:18:36.168Z,36.94
2018-07-24T07:19:36.138Z,36.51
2018-07-24T07:20:36.205Z,36.16
2018-07-24T07:21:36.075Z,36.12
2018-07-24T07:22:36.056Z,35.87
2018-07-24T07:23:36.020Z,35.45
2018-07-24T07:24:35.987Z,35.71
2018-07-24T07:25:45.846Z,35.18
2018-07-24T07:26:35.940Z,35.41
2018-07-24T07:27:35.903Z,35.28
2018-07-24T07:28:35.877Z,35.50
2018-07-24T07:29:35.858Z,35.44
2018-07-24T07:30:35.824Z,35.18
2018-07-24T07:31:35.811Z,35.10
2018-07-24T07:32:35.801Z,34.69
2018-07-24T07:33:35.735Z,34.37
2018-07-24T07:34:35.710Z,34.13
2018-07-24T07:35:35.690Z,33.97
2018-07-24T07:36:35.679Z,34.32
2018-07-24T07:37:35.629Z,34.82
2018-07-24T07:38:35.604Z,34.91
2018-07-24T07:39:35.563Z,34.92
2018-07-24T07:40:35.539Z,35.22
2018-07-24T07:41:35.536Z,35.43
2018-07-24T07:42:35.485Z,35.80
2018-07-24T07:43:35.463Z,35.45
2018-07-24T07:44:45.861Z,34.99
2018-07-24T07:45:35.405Z,35.18
2018-07-24T07:46:35.380Z,35.82
2018-07-24T07:47:35.376Z,36.19
2018-07-24T07:48:35.324Z,35.99
2018-07-24T07:49:35.290Z,35.82
2018-07-24T07:50:35.263Z,35.31
2018-07-24T07:51:35.295Z,35.10
2018-07-24T07:52:35.274Z,35.41
2018-07-24T07:53:35.187Z,35.56
2018-07-24T07:54:35.166Z,35.18
2018-07-24T07:55:35.136Z,34.46
2018-07-24T07:56:35.106Z,33.94
2018-07-24T07:57:35.093Z,33.93
2018-07-24T07:58:35.052Z,34.34
2018-07-24T07:59:35.025Z,34.13
2018-07-24T08:00:35.001Z,34.10
2018-07-24T08:01:34.971Z,34.13
2018-07-24T08:02:35.017Z,34.65
2018-07-24T08:03:34.937Z,34.78
2018-07-24T08:04:45.406Z,34.16
2018-07-24T08:05:34.867Z,33.87
2018-07-24T08:06:34.838Z,33.97
2018-07-24T08:07:34.816Z,33.75
2018-07-24T08:08:34.805Z,33.73
2018-07-24T08:09:34.752Z,33.95
2018-07-24T08:10:34.728Z,34.13
2018-07-24T08:11:34.709Z,34.03
2018-07-24T08:12:34.680Z,34.30
2018-07-24T08:13:34.680Z,34.72
2018-07-24T08:14:34.625Z,35.09
2018-07-24T08:15:34.611Z,35.56
2018-07-24T08:16:34.575Z,35.37
2018-07-24T08:17:34.553Z,35.22
2018-07-24T08:18:34.552Z,34.72
2018-07-24T08:19:34.493Z,34.54
2018-07-24T08:20:34.464Z,34.43
2018-07-24T08:21:34.446Z,33.68
2018-07-24T08:22:34.416Z,33.81
2018-07-24T08:23:34.399Z,34.16
2018-07-24T08:24:34.392Z,34.53
2018-07-24T08:25:34.347Z,34.80
2018-07-24T08:26:34.322Z,35.18
2018-07-24T08:27:34.290Z,35.50
2018-07-24T08:28:34.270Z,35.44
2018-07-24T08:29:34.273Z,35.72
2018-07-24T08:30:34.224Z,35.99
2018-07-24T08:31:34.202Z,36.16
2018-07-24T08:32:34.163Z,36.31
2018-07-24T08:33:34.163Z,35.80
2018-07-24T08:34:34.147Z,35.74
2018-07-24T08:35:34.097Z,35.26
2018-07-24T08:36:34.076Z,34.84
2018-07-24T08:37:34.062Z,34.37
2018-07-24T08:38:34.027Z,33.72
2018-07-24T08:39:33.993Z,33.78
2018-07-24T08:40:33.993Z,33.49
2018-07-24T08:41:34.016Z,33.78
2018-07-24T08:42:33.923Z,34.06
2018-07-24T08:43:43.949Z,34.56
2018-07-24T08:44:33.877Z,34.92
2018-07-24T08:45:33.961Z,35.22
2018-07-24T08:46:33.841Z,34.56
2018-07-24T08:47:33.809Z,34.27
2018-07-24T08:48:33.788Z,34.65
2018-07-24T08:49:33.803Z,34.87
2018-07-24T08:50:33.742Z,34.96
2018-07-24T08:51:33.797Z,35.04
2018-07-24T08:52:33.769Z,35.29
2018-07-24T08:53:33.933Z,35.29
2018-07-24T08:54:33.782Z,34.81
2018-07-24T08:55:33.974Z,34.82
2018-07-24T08:56:33.626Z,34.87
2018-07-24T08:57:33.567Z,35.07
2018-07-24T08:58:33.547Z,34.87
2018-07-24T08:59:33.531Z,35.19
2018-07-24T09:00:33.549Z,35.29
2018-07-24T09:01:33.505Z,35.56
2018-07-24T09:02:33.457Z,35.19
2018-07-24T09:03:44.501Z,34.94
2018-07-24T09:04:33.415Z,35.09
2018-07-24T09:05:33.396Z,34.88
2018-07-24T09:06:33.395Z,34.80
2018-07-24T09:07:33.343Z,34.92
2018-07-24T09:08:33.317Z,35.04
2018-07-24T09:09:33.295Z,35.10
2018-07-24T09:10:33.270Z,35.11
2018-07-24T09:11:33.259Z,34.87
2018-07-24T09:12:33.257Z,35.22
2018-07-24T09:13:33.204Z,35.52
2018-07-24T09:14:33.183Z,35.80
2018-07-24T09:15:33.221Z,35.62
2018-07-24T09:16:33.151Z,35.37
2018-07-24T09:17:33.146Z,35.02
2018-07-24T09:18:33.098Z,34.70
2018-07-24T09:19:33.071Z,34.43
2018-07-24T09:20:33.051Z,34.00
2018-07-24T09:21:33.027Z,34.21
2018-07-24T09:22:33.039Z,33.95
2018-07-24T09:23:44.023Z,33.94
2018-07-24T09:24:32.968Z,34.00
2018-07-24T09:25:32.934Z,34.28
2018-07-24T09:26:32.913Z,34.25
2018-07-24T09:27:32.899Z,34.27
2018-07-24T09:28:32.901Z,34.61
2018-07-24T09:29:32.846Z,34.22
2018-07-24T09:30:32.825Z,34.61
2018-07-24T09:31:32.797Z,34.78
2018-07-24T09:32:32.784Z,35.21
2018-07-24T09:33:32.780Z,35.33
2018-07-24T09:34:32.739Z,35.28
2018-07-24T09:35:32.717Z,35.62
2018-07-24T09:36:32.698Z,35.82
2018-07-24T09:37:32.664Z,36.12
2018-07-24T09:38:32.669Z,36.09
2018-07-24T09:39:32.619Z,35.81
2018-07-24T09:40:32.628Z,34.97
2018-07-24T09:41:32.582Z,34.72
2018-07-24T09:42:32.558Z,34.62
2018-07-24T09:43:32.536Z,34.80
2018-07-24T09:44:32.536Z,34.81
2018-07-24T09:45:32.492Z,34.75
2018-07-24T09:46:32.478Z,34.78
2018-07-24T09:47:32.451Z,34.34
2018-07-24T09:48:32.427Z,34.17
2018-07-24T09:49:32.424Z,33.75
2018-07-24T09:50:32.392Z,33.81
2018-07-24T09:51:32.357Z,33.93
2018-07-24T09:52:32.339Z,34.22
2018-07-24T09:53:32.320Z,34.24
2018-07-24T09:54:32.321Z,34.30
2018-07-24T09:55:32.278Z,34.47
2018-07-24T09:56:32.312Z,34.19
2018-07-24T09:57:32.226Z,34.02
2018-07-24T09:58:32.199Z,34.35
2018-07-24T09:59:32.220Z,34.31
2018-07-24T10:00:32.164Z,34.64
2018-07-24T10:01:32.135Z,34.17
2018-07-24T10:02:42.573Z,34.35
2018-07-24T10:03:32.097Z,34.70
2018-07-24T10:04:32.075Z,35.02
2018-07-24T10:05:32.140Z,35.10
2018-07-24T10:06:32.033Z,34.78
2018-07-24T10:07:32.004Z,34.85
2018-07-24T10:08:31.980Z,34.62
2018-07-24T10:09:31.958Z,34.84
2018-07-24T10:10:31.959Z,34.80
2018-07-24T10:11:31.919Z,34.56
2018-07-24T10:12:31.928Z,34.81
2018-07-24T10:13:31.885Z,34.88
2018-07-24T10:14:31.851Z,35.00
2018-07-24T10:15:31.857Z,35.15
2018-07-24T10:16:31.835Z,35.62
2018-07-24T10:17:31.791Z,35.78
2018-07-24T10:18:31.775Z,35.93
2018-07-24T10:19:31.741Z,36.19
2018-07-24T10:20:31.747Z,36.22
2018-07-24T10:21:31.696Z,36.03
2018-07-24T10:22:31.676Z,35.58
2018-07-24T10:23:31.667Z,35.59
2018-07-24T10:24:31.655Z,35.84
2018-07-24T10:25:31.620Z,35.93
2018-07-24T10:26:31.624Z,35.70
2018-07-24T10:27:31.572Z,35.70
2018-07-24T10:28:31.549Z,35.58
2018-07-24T10:29:31.535Z,35.31
2018-07-24T10:30:31.563Z,35.29
2018-07-24T10:31:31.521Z,35.19
2018-07-24T10:32:31.467Z,35.33
2018-07-24T10:33:31.448Z,35.25
2018-07-24T10:34:31.429Z,35.23
2018-07-24T10:35:31.413Z,35.48
2018-07-24T10:36:31.425Z,35.81
2018-07-24T10:37:31.392Z,35.58
2018-07-24T10:38:31.348Z,35.00
2018-07-24T10:39:31.326Z,35.18
2018-07-24T10:40:31.300Z,35.44
2018-07-24T10:41:31.280Z,35.53
2018-07-24T10:42:31.282Z,35.44
2018-07-24T10:43:31.244Z,35.65
2018-07-24T10:44:31.226Z,35.47
2018-07-24T10:45:31.196Z,35.21
2018-07-24T10:46:31.175Z,34.99
2018-07-24T10:47:31.189Z,35.03
2018-07-24T10:48:31.143Z,35.44
2018-07-24T10:49:31.126Z,35.71
2018-07-24T10:50:31.099Z,35.85
2018-07-24T10:51:31.076Z,35.89
2018-07-24T10:52:31.097Z,36.08
2018-07-24T10:53:31.032Z,36.16
2018-07-24T10:54:31.011Z,36.32
2018-07-24T10:55:30.996Z,36.53
2018-07-24T10:56:30.972Z,35.93
2018-07-24T10:57:30.978Z,35.96
2018-07-24T10:58:30.940Z,35.34
2018-07-24T10:59:30.907Z,34.72
2018-07-24T11:00:30.886Z,34.40
2018-07-24T11:03:11.509Z,34.37
2018-07-24T11:04:11.463Z,34.13
2018-07-24T11:05:11.530Z,34.28
2018-07-24T11:06:11.428Z,34.59
2018-07-24T11:07:11.411Z,34.81
2018-07-24T11:08:11.428Z,34.87
2018-07-24T11:09:11.355Z,35.16
2018-07-24T11:10:11.346Z,35.33
2018-07-24T11:11:11.323Z,35.40
2018-07-24T11:12:11.306Z,35.52
2018-07-24T11:13:11.296Z,35.63
2018-07-24T11:14:11.249Z,35.62
2018-07-24T11:15:11.236Z,35.21
2018-07-24T11:16:11.211Z,34.88
2018-07-24T11:17:11.194Z,34.81
2018-07-24T11:18:11.200Z,34.39
2018-07-24T11:19:11.159Z,34.32
2018-07-24T11:20:11.138Z,34.49
2018-07-24T11:21:11.105Z,34.66
2018-07-24T11:22:11.329Z,34.78
2018-07-24T11:23:11.165Z,34.49
2018-07-24T11:24:11.038Z,34.53
2018-07-24T11:25:11.032Z,34.30
2018-07-24T11:26:11.012Z,34.25
2018-07-24T11:27:10.979Z,34.13
2018-07-24T11:28:10.954Z,34.35
2018-07-24T11:29:10.962Z,34.58
2018-07-24T11:30:10.924Z,34.85
2018-07-24T11:31:10.900Z,34.96
2018-07-24T11:32:10.881Z,34.64
2018-07-24T11:33:10.978Z,34.25
2018-07-24T11:34:10.854Z,34.24
2018-07-24T11:35:10.809Z,34.35
2018-07-24T11:36:10.805Z,34.06
2018-07-24T11:37:10.771Z,34.32
2018-07-24T11:38:10.754Z,34.15
2018-07-24T11:39:10.758Z,33.98
2018-07-24T11:40:10.707Z,34.10
2018-07-24T11:41:10.724Z,34.32
2018-07-24T11:42:10.653Z,34.53
2018-07-24T11:43:10.650Z,34.72
2018-07-24T11:44:10.691Z,34.85
2018-07-24T11:45:10.620Z,34.75
2018-07-24T11:46:10.569Z,34.59
2018-07-24T11:47:10.543Z,34.82
2018-07-24T11:48:10.549Z,34.96
2018-07-24T11:49:10.507Z,34.97
2018-07-24T11:50:10.507Z,35.03
2018-07-24T11:51:10.466Z,34.92
2018-07-24T11:52:10.444Z,34.77
2018-07-24T11:53:10.411Z,34.99
2018-07-24T11:54:10.391Z,35.00
2018-07-24T11:55:10.389Z,35.10
2018-07-24T11:56:10.350Z,35.36
2018-07-24T11:57:10.334Z,35.37
2018-07-24T11:58:10.312Z,35.10
2018-07-24T11:59:10.281Z,35.10
2018-07-24T12:00:17.825Z,34.96
2018-07-24T12:01:10.251Z,35.03
2018-07-24T12:02:10.223Z,34.94
2018-07-24T12:03:10.197Z,34.99
2018-07-24T12:04:10.173Z,34.80
2018-07-24T12:05:10.185Z,34.50
2018-07-24T12:06:10.129Z,34.49
2018-07-24T12:07:10.115Z,34.25
2018-07-24T12:08:10.100Z,33.95
2018-07-24T12:09:10.090Z,34.08
2018-07-24T12:10:10.048Z,34.32
2018-07-24T12:11:10.044Z,34.34
2018-07-24T12:12:09.994Z,34.44
2018-07-24T12:13:09.982Z,34.65
2018-07-24T12:14:09.958Z,34.66
2018-07-24T12:15:09.987Z,34.78
2018-07-24T12:16:09.926Z,34.85
2018-07-24T12:17:09.888Z,34.94
2018-07-24T12:18:09.860Z,35.04
2018-07-24T12:19:09.844Z,35.11
2018-07-24T12:20:19.769Z,35.07
2018-07-24T12:21:09.799Z,34.78
2018-07-24T12:22:09.770Z,34.65
2018-07-24T12:23:09.759Z,34.46
2018-07-24T12:24:09.727Z,34.34
2018-07-24T12:25:09.708Z,34.52
2018-07-24T12:26:09.709Z,34.52
2018-07-24T12:27:09.755Z,34.78
2018-07-24T12:28:09.630Z,34.87
2018-07-24T12:29:09.617Z,35.00
2018-07-24T12:30:09.599Z,35.09
2018-07-24T12:31:09.590Z,35.31
2018-07-24T12:32:09.550Z,35.21
2018-07-24T12:33:09.530Z,35.16
2018-07-24T12:34:09.498Z,34.64
2018-07-24T12:35:09.474Z,34.56
2018-07-24T12:36:09.650Z,34.61
2018-07-24T12:37:09.440Z,34.54
2018-07-24T12:38:09.416Z,34.56
2018-07-24T12:39:09.459Z,34.73
2018-07-24T12:40:09.375Z,34.72
2018-07-24T12:41:09.341Z,34.73
2018-07-24T12:42:09.364Z,34.69
2018-07-24T12:43:09.309Z,34.72
2018-07-24T12:44:09.286Z,34.53
2018-07-24T12:45:09.262Z,34.34
2018-07-24T12:46:09.244Z,34.02
2018-07-24T12:47:09.241Z,34.02
2018-07-24T12:48:09.193Z,34.00
2018-07-24T12:49:09.172Z,34.03
2018-07-24T12:50:09.148Z,33.82
2018-07-24T12:51:09.133Z,33.69
2018-07-24T12:52:09.124Z,33.65
2018-07-24T12:53:09.074Z,33.79
2018-07-24T12:54:09.056Z,33.88